createdAt,value
2017-10-19T00:01:27.536Z,100204.55
2017-10-19T00:03:55.147Z,100206.56
2017-10-19T00:06:22.810Z,100206.32
2017-10-19T00:08:50.595Z,100205.44
2017-10-19T00:11:18.264Z,100199.22
2017-10-19T00:13:45.936Z,100202.14
2017-10-19T00:16:13.602Z,100200.41
2017-10-19T00:18:41.282Z,100201.27
2017-10-19T00:21:08.896Z,100200.88
2017-10-19T00:23:36.557Z,100200.81
2017-10-19T00:26:04.170Z,100200.06
2017-10-19T00:28:31.784Z,100193.03
2017-10-19T00:30:59.469Z,100197.41
2017-10-19T00:33:27.093Z,100188.73
2017-10-19T00:35:54.703Z,100186.72
2017-10-19T00:38:22.364Z,100183.70
2017-10-19T00:40:49.975Z,100188.19
2017-10-19T00:43:17.583Z,100184.58
2017-10-19T00:45:45.252Z,100187.64
2017-10-19T00:48:12.864Z,100186.13
2017-10-19T00:50:40.544Z,100183.02
2017-10-19T00:53:08.221Z,100185.83
2017-10-19T00:55:35.871Z,100185.83
2017-10-19T00:58:03.502Z,100182.67
2017-10-19T01:00:31.195Z,100181.08
2017-10-19T01:02:58.807Z,100179.64
2017-10-19T01:05:26.415Z,100175.86
2017-10-19T01:07:54.135Z,100180.94
2017-10-19T01:10:21.750Z,100172.78
2017-10-19T01:12:49.371Z,100168.75
2017-10-19T01:15:17.035Z,100167.82
2017-10-19T01:17:44.655Z,100168.11
2017-10-19T01:20:12.276Z,100170.04
2017-10-19T01:22:40.007Z,100163.48
2017-10-19T01:25:07.667Z,100175.92
2017-10-19T01:27:35.285Z,100174.33
2017-10-19T01:30:02.973Z,100174.61
2017-10-19T01:32:30.591Z,100169.47
2017-10-19T01:34:58.200Z,100173.17
2017-10-19T01:37:25.970Z,100171.74
2017-10-19T01:39:53.715Z,100172.92
2017-10-19T01:42:21.391Z,100167.88
2017-10-19T01:44:49.055Z,100165.89
2017-10-19T01:47:16.675Z,100168.48
2017-10-19T01:49:56.311Z,100168.66
2017-10-19T01:52:23.976Z,100165.97
2017-10-19T01:54:51.635Z,100168.06
2017-10-19T01:57:19.460Z,100165.57
2017-10-19T01:59:47.128Z,100164.90
2017-10-19T02:02:14.800Z,100166.25
2017-10-19T02:04:42.461Z,100167.10
2017-10-19T02:07:10.063Z,100161.97
2017-10-19T02:09:37.723Z,100169.37
2017-10-19T02:12:05.438Z,100161.73
2017-10-19T02:14:33.067Z,100165.33
2017-10-19T02:17:00.675Z,100166.50
2017-10-19T02:19:28.328Z,100171.96
2017-10-19T02:21:55.942Z,100161.48
2017-10-19T02:24:23.599Z,100163.83
2017-10-19T02:26:51.317Z,100158.31
2017-10-19T02:29:18.921Z,100159.03
2017-10-19T02:31:46.527Z,100160.55
2017-10-19T02:34:14.193Z,100166.61
2017-10-19T02:36:41.805Z,100156.53
2017-10-19T02:39:09.504Z,100159.05
2017-10-19T02:41:37.154Z,100160.46
2017-10-19T02:44:04.763Z,100156.71
2017-10-19T02:46:32.370Z,100164.84
2017-10-19T02:49:00.027Z,100166.85
2017-10-19T02:51:27.634Z,100166.52
2017-10-19T02:53:55.255Z,100171.63
2017-10-19T02:56:22.995Z,100172.95
2017-10-19T02:58:50.622Z,100171.30
2017-10-19T03:01:18.228Z,100167.58
2017-10-19T03:03:45.968Z,100169.69
2017-10-19T03:06:13.646Z,100165.91
2017-10-19T03:08:41.252Z,100168.00
2017-10-19T03:11:08.931Z,100164.64
2017-10-19T03:13:36.538Z,100169.51
2017-10-19T03:16:04.212Z,100166.59
2017-10-19T03:18:31.870Z,100168.27
2017-10-19T03:20:59.482Z,100170.01
2017-10-19T03:23:27.079Z,100173.70
2017-10-19T03:25:54.719Z,100170.95
2017-10-19T03:28:22.331Z,100168.50
2017-10-19T03:30:50.012Z,100171.00
2017-10-19T03:33:17.667Z,100167.16
2017-10-19T03:35:45.287Z,100159.23
2017-10-19T03:38:13.270Z,100157.41
2017-10-19T03:40:40.919Z,100160.06
2017-10-19T03:43:08.583Z,100158.31
2017-10-19T03:45:36.247Z,100158.31
2017-10-19T03:48:03.910Z,100160.73
2017-10-19T03:50:31.593Z,100155.11
2017-10-19T03:52:59.254Z,100150.98
2017-10-19T03:55:26.891Z,100160.64
2017-10-19T03:57:54.546Z,100159.88
2017-10-19T04:00:22.223Z,100162.06
2017-10-19T04:02:49.867Z,100163.64
2017-10-19T04:05:17.467Z,100162.22
2017-10-19T04:07:45.183Z,100158.54
2017-10-19T04:10:12.841Z,100160.20
2017-10-19T04:12:41.282Z,100159.78
2017-10-19T04:15:08.892Z,100157.77
2017-10-19T04:17:36.535Z,100163.22
2017-10-19T04:20:04.127Z,100156.48
2017-10-19T04:22:31.718Z,100154.76
2017-10-19T04:24:59.424Z,100157.68
2017-10-19T04:27:27.027Z,100145.10
2017-10-19T04:29:54.687Z,100152.16
2017-10-19T04:32:22.383Z,100155.16
2017-10-19T04:34:49.990Z,100152.05
2017-10-19T04:37:17.587Z,100150.20
2017-10-19T04:39:45.288Z,100145.27
2017-10-19T04:42:12.882Z,100148.86
2017-10-19T04:44:40.547Z,100150.22
2017-10-19T04:47:08.268Z,100150.41
2017-10-19T04:49:35.987Z,100155.27
2017-10-19T04:52:03.590Z,100157.29
2017-10-19T04:54:31.252Z,100150.51
2017-10-19T04:56:58.931Z,100160.76
2017-10-19T04:59:26.545Z,100156.47
2017-10-19T05:01:54.260Z,100159.00
2017-10-19T05:04:21.972Z,100162.13
2017-10-19T05:06:49.635Z,100165.41
2017-10-19T05:09:17.344Z,100166.19
2017-10-19T05:11:45.063Z,100164.27
2017-10-19T05:14:12.688Z,100164.83
2017-10-19T05:16:40.381Z,100170.14
2017-10-19T05:19:08.055Z,100171.75
2017-10-19T05:21:35.675Z,100177.16
2017-10-19T05:24:03.335Z,100181.62
2017-10-19T05:26:30.940Z,100178.93
2017-10-19T05:28:58.544Z,100177.95
2017-10-19T05:31:26.348Z,100184.45
2017-10-19T05:33:54.007Z,100177.16
2017-10-19T05:36:21.611Z,100182.40
2017-10-19T05:38:49.267Z,100183.64
2017-10-19T05:41:16.875Z,100190.05
2017-10-19T05:43:44.478Z,100192.31
2017-10-19T05:46:12.191Z,100188.46
2017-10-19T05:48:39.797Z,100192.00
2017-10-19T05:51:07.415Z,100196.45
2017-10-19T05:53:35.133Z,100196.09
2017-10-19T05:56:02.754Z,100199.13
2017-10-19T05:58:30.354Z,100197.59
2017-10-19T06:00:58.072Z,100199.66
2017-10-19T06:03:25.687Z,100201.30
2017-10-19T06:05:53.291Z,100201.91
2017-10-19T06:08:20.954Z,100206.03
2017-10-19T06:10:48.615Z,100204.27
2017-10-19T06:13:16.280Z,100199.55
2017-10-19T06:15:43.984Z,100212.59
2017-10-19T06:18:11.587Z,100206.46
2017-10-19T06:20:39.191Z,100201.53
2017-10-19T06:23:06.843Z,100206.85
2017-10-19T06:25:34.512Z,100208.51
2017-10-19T06:28:02.125Z,100200.95
2017-10-19T06:30:29.847Z,100202.39
2017-10-19T06:32:57.520Z,100205.56
2017-10-19T06:35:25.179Z,100203.69
2017-10-19T06:37:52.831Z,100205.92
2017-10-19T06:40:20.438Z,100209.28
2017-10-19T06:42:48.110Z,100210.80
2017-10-19T06:45:15.856Z,100205.23
2017-10-19T06:47:43.484Z,100206.14
2017-10-19T06:50:11.115Z,100214.36
2017-10-19T06:52:38.800Z,100208.58
2017-10-19T06:55:06.404Z,100217.38
2017-10-19T06:57:34.021Z,100215.78
2017-10-19T07:00:01.685Z,100210.76
2017-10-19T07:02:29.298Z,100215.69
2017-10-19T07:04:56.967Z,100214.67
2017-10-19T07:07:24.680Z,100209.38
2017-10-19T07:09:52.283Z,100203.03
2017-10-19T07:12:19.887Z,100205.67
2017-10-19T07:14:47.704Z,100205.58
2017-10-19T07:17:15.316Z,100210.00
2017-10-19T07:19:42.927Z,100204.78
2017-10-19T07:22:10.591Z,100210.52
2017-10-19T07:24:38.199Z,100203.22
2017-10-19T07:27:05.872Z,100203.30
2017-10-19T07:29:33.580Z,100199.98
2017-10-19T07:32:01.195Z,100203.55
2017-10-19T07:34:28.799Z,100204.92
2017-10-19T07:36:56.462Z,100203.98
2017-10-19T07:39:24.071Z,100202.02
2017-10-19T07:41:51.744Z,100200.58
2017-10-19T07:44:19.404Z,100206.42
2017-10-19T07:46:47.007Z,100198.54
2017-10-19T07:49:14.619Z,100201.23
2017-10-19T07:51:42.341Z,100206.84
2017-10-19T07:54:09.962Z,100203.05
2017-10-19T07:56:37.617Z,100204.86
2017-10-19T07:59:05.332Z,100205.66
2017-10-19T08:01:32.935Z,100206.32
2017-10-19T08:04:00.540Z,100197.74
2017-10-19T08:06:28.186Z,100199.14
2017-10-19T08:08:55.791Z,100197.79
2017-10-19T08:11:23.396Z,100198.12
2017-10-19T08:13:51.172Z,100199.22
2017-10-19T08:16:18.835Z,100190.20
2017-10-19T08:18:46.440Z,100192.40
2017-10-19T08:21:14.100Z,100193.41
2017-10-19T08:23:41.764Z,100193.28
2017-10-19T08:26:09.376Z,100194.73
2017-10-19T08:28:37.131Z,100192.28
2017-10-19T08:31:04.795Z,100195.02
2017-10-19T08:33:32.463Z,100184.83
2017-10-19T08:36:00.120Z,100188.31
2017-10-19T08:38:27.788Z,100189.84
2017-10-19T08:40:55.451Z,100181.03
2017-10-19T08:43:23.298Z,100184.17
2017-10-19T08:45:50.960Z,100184.94
2017-10-19T08:48:18.623Z,100184.30
2017-10-19T08:50:46.342Z,100186.42
2017-10-19T08:53:13.943Z,100190.14
2017-10-19T08:55:41.545Z,100180.56
2017-10-19T08:58:09.211Z,100181.22
2017-10-19T09:00:36.810Z,100182.78
2017-10-19T09:03:04.488Z,100182.61
2017-10-19T09:05:32.261Z,100179.11
2017-10-19T09:07:59.891Z,100175.03
2017-10-19T09:10:27.495Z,100181.17
2017-10-19T09:12:55.215Z,100180.38
2017-10-19T09:15:22.814Z,100174.66
2017-10-19T09:17:50.473Z,100171.06
2017-10-19T09:20:18.195Z,100169.48
2017-10-19T09:22:45.814Z,100161.10
2017-10-19T09:25:13.387Z,100169.67
2017-10-19T09:27:41.039Z,100162.77
2017-10-19T09:30:08.643Z,100154.55
2017-10-19T09:32:36.242Z,100150.38
2017-10-19T09:35:03.899Z,100148.34
2017-10-19T09:37:31.640Z,100144.64
2017-10-19T09:39:59.355Z,100137.31
2017-10-19T09:42:27.059Z,100138.45
2017-10-19T09:44:54.727Z,100136.21
2017-10-19T09:47:22.388Z,100129.75
2017-10-19T09:49:50.044Z,100129.78
2017-10-19T09:52:17.642Z,100126.24
2017-10-19T09:54:45.243Z,100122.59
2017-10-19T09:57:12.953Z,100126.00
2017-10-19T09:59:40.610Z,100122.16
2017-10-19T10:02:08.207Z,100122.23
2017-10-19T10:04:35.854Z,100115.51
2017-10-19T10:07:03.516Z,100116.48
2017-10-19T10:09:31.118Z,100109.11
2017-10-19T10:11:58.766Z,100100.99
2017-10-19T10:14:26.524Z,100107.77
2017-10-19T10:16:54.187Z,100108.06
2017-10-19T10:19:21.840Z,100108.15
2017-10-19T10:21:49.470Z,100106.21
2017-10-19T10:24:17.067Z,100103.46
2017-10-19T10:26:44.789Z,100092.59
2017-10-19T10:29:12.448Z,100090.55
2017-10-19T10:31:40.067Z,100088.42
2017-10-19T10:34:07.730Z,100083.93
2017-10-19T10:36:35.335Z,100083.08
2017-10-19T10:39:02.951Z,100075.20
2017-10-19T10:41:30.680Z,100074.59
2017-10-19T10:43:58.344Z,100075.61
2017-10-19T10:46:26.016Z,100064.89
2017-10-19T10:48:53.740Z,100065.93
2017-10-19T10:51:21.365Z,100065.76
2017-10-19T10:53:49.051Z,100061.86
2017-10-19T10:56:16.726Z,100058.16
2017-10-19T10:58:44.346Z,100047.85
2017-10-19T11:01:11.954Z,100049.16
2017-10-19T11:03:39.687Z,100044.88
2017-10-19T11:06:07.320Z,100043.94
2017-10-19T11:08:34.939Z,100038.50
2017-10-19T11:11:02.608Z,100041.84
2017-10-19T11:13:30.289Z,100037.20
2017-10-19T11:15:57.951Z,100037.20
2017-10-19T11:18:25.723Z,100033.30
2017-10-19T11:20:53.331Z,100025.70
2017-10-19T11:23:21.005Z,100030.81
2017-10-19T11:25:48.737Z,100025.22
2017-10-19T11:28:16.344Z,100022.89
2017-10-19T11:30:43.954Z,100021.67
2017-10-19T11:33:11.690Z,100018.09
2017-10-19T11:35:39.303Z,100023.11
2017-10-19T11:38:06.912Z,100018.38
2017-10-19T11:40:34.564Z,100016.38
2017-10-19T11:43:02.174Z,100012.59
2017-10-19T11:45:29.788Z,100013.58
2017-10-19T11:47:57.436Z,100011.37
2017-10-19T11:50:25.108Z,100003.75
2017-10-19T11:52:52.780Z,100004.53
2017-10-19T11:55:20.512Z,100010.41
2017-10-19T11:57:48.128Z,100011.09
2017-10-19T12:00:15.791Z,100001.41
2017-10-19T12:02:43.453Z,100001.84
2017-10-19T12:05:11.063Z,100003.88
2017-10-19T12:07:38.726Z,100002.96
2017-10-19T12:10:06.376Z,99998.17
2017-10-19T12:12:33.979Z,99988.98
2017-10-19T12:15:01.636Z,99994.37
2017-10-19T12:17:29.279Z,99993.89
2017-10-19T12:19:56.885Z,99994.63
2017-10-19T12:22:24.492Z,99986.92
2017-10-19T12:24:52.143Z,99984.05
2017-10-19T12:27:19.764Z,99983.92
2017-10-19T12:29:47.423Z,99989.30
2017-10-19T12:32:15.152Z,99979.23
2017-10-19T12:34:42.819Z,99978.84
2017-10-19T12:37:10.417Z,99973.05
2017-10-19T12:39:38.080Z,99976.48
2017-10-19T12:42:05.695Z,99982.95
2017-10-19T12:44:33.346Z,99987.63
2017-10-19T12:47:01.015Z,99983.66
2017-10-19T12:49:28.625Z,99980.34
2017-10-19T12:51:56.235Z,99979.22
2017-10-19T12:54:23.994Z,99977.28
2017-10-19T12:56:51.663Z,99972.84
2017-10-19T12:59:19.266Z,99975.05
2017-10-19T13:01:47.001Z,99968.00
2017-10-19T13:04:14.611Z,99975.25
2017-10-19T13:06:42.267Z,99969.44
2017-10-19T13:09:09.978Z,99969.80
2017-10-19T13:11:37.583Z,99972.50
2017-10-19T13:14:05.199Z,99973.70
2017-10-19T13:16:32.851Z,99971.62
2017-10-19T13:19:00.513Z,99969.86
2017-10-19T13:21:28.111Z,99971.61
2017-10-19T13:23:55.832Z,99976.70
2017-10-19T13:26:23.447Z,99973.36
2017-10-19T13:28:51.066Z,99976.07
2017-10-19T13:31:18.713Z,99969.74
2017-10-19T13:33:46.322Z,99971.33
2017-10-19T13:36:13.939Z,99968.68
2017-10-19T13:38:41.703Z,99966.87
2017-10-19T13:41:09.315Z,99971.37
2017-10-19T13:43:36.972Z,99969.23
2017-10-19T13:46:04.632Z,99969.13
2017-10-19T13:48:32.281Z,99967.70
2017-10-19T13:50:59.960Z,99966.27
2017-10-19T13:53:27.674Z,99963.34
2017-10-19T13:55:55.276Z,99971.11
2017-10-19T13:58:22.876Z,99967.58
2017-10-19T14:00:50.679Z,99965.18
2017-10-19T14:03:18.343Z,99960.14
2017-10-19T14:05:45.943Z,99969.94
2017-10-19T14:08:13.591Z,99967.24
2017-10-19T14:10:41.195Z,99972.91
2017-10-19T14:13:08.795Z,99965.98
2017-10-19T14:15:36.483Z,99967.48
2017-10-19T14:18:04.195Z,99963.13
2017-10-19T14:22:56.453Z,99966.33
2017-10-19T14:25:24.120Z,99969.89
2017-10-19T14:27:51.888Z,99972.31
2017-10-19T14:30:19.606Z,99966.34
2017-10-19T14:32:47.305Z,99971.39
2017-10-19T14:35:14.960Z,99976.99
2017-10-19T14:37:42.746Z,99974.14
2017-10-19T14:40:10.497Z,99970.74
2017-10-19T14:42:38.150Z,99965.80
2017-10-19T14:45:05.851Z,99970.23
2017-10-19T14:47:33.585Z,99974.34
2017-10-19T14:50:01.313Z,99975.16
2017-10-19T14:52:28.979Z,99976.29
2017-10-19T14:54:56.648Z,99973.05
2017-10-19T14:57:24.311Z,99984.73
2017-10-19T14:59:51.961Z,99976.45
2017-10-19T15:02:19.628Z,99968.80
2017-10-19T15:04:47.296Z,99979.03
2017-10-19T15:07:15.093Z,99980.32
2017-10-19T15:09:42.695Z,99980.61
2017-10-19T15:12:10.401Z,99983.27
2017-10-19T15:14:38.166Z,99981.69
2017-10-19T15:17:05.939Z,99988.95
2017-10-19T15:19:33.547Z,99981.00
2017-10-19T15:22:01.564Z,99988.56
2017-10-19T15:24:29.334Z,99988.06
2017-10-19T15:26:57.011Z,99993.50
2017-10-19T15:29:24.760Z,99992.05
2017-10-19T15:31:52.360Z,99994.71
2017-10-19T15:34:20.161Z,99987.94
2017-10-19T15:36:48.263Z,99985.45
2017-10-19T15:39:15.859Z,99987.84
2017-10-19T15:41:43.516Z,99995.03
2017-10-19T15:44:11.179Z,99995.02
2017-10-19T15:46:38.839Z,99993.42
2017-10-19T15:49:06.510Z,99998.39
2017-10-19T15:51:34.164Z,99993.44
2017-10-19T15:54:01.767Z,99989.88
2017-10-19T15:56:29.366Z,99995.10
2017-10-19T15:58:57.083Z,99993.92
2017-10-19T16:01:24.687Z,99993.27
2017-10-19T16:03:52.327Z,99989.58
2017-10-19T16:06:19.979Z,99992.33
2017-10-19T16:08:47.597Z,99992.81
2017-10-19T16:11:15.269Z,99991.27
2017-10-19T16:13:42.971Z,99987.47
2017-10-19T16:16:10.580Z,99989.10
2017-10-19T16:18:38.183Z,99987.97
2017-10-19T16:21:05.835Z,99989.17
2017-10-19T16:23:33.431Z,99984.20
2017-10-19T16:26:01.036Z,99987.56
2017-10-19T16:28:28.691Z,99994.30
2017-10-19T16:30:56.291Z,99994.10
2017-10-19T16:33:24.008Z,99997.91
2017-10-19T16:35:51.651Z,99996.97
2017-10-19T16:38:19.312Z,99994.36
2017-10-19T16:40:46.975Z,100000.46
2017-10-19T16:43:14.634Z,99999.73
2017-10-19T16:45:42.240Z,99998.31
2017-10-19T16:48:09.875Z,100003.16
2017-10-19T16:50:37.591Z,100000.96
2017-10-19T16:53:05.208Z,99998.70
2017-10-19T16:55:32.819Z,99996.92
2017-10-19T16:58:00.499Z,100001.62
2017-10-19T17:00:28.113Z,100004.75
2017-10-19T17:02:55.836Z,100009.38
2017-10-19T17:05:23.584Z,100007.39
2017-10-19T17:07:51.243Z,100010.84
2017-10-19T17:10:18.852Z,100007.39
2017-10-19T17:12:46.660Z,100009.38
2017-10-19T17:15:14.331Z,100004.70
2017-10-19T17:17:42.000Z,99998.44
2017-10-19T17:20:09.723Z,100005.54
2017-10-19T17:22:37.337Z,100003.45
2017-10-19T17:25:04.956Z,100002.72
2017-10-19T17:27:32.619Z,100003.66
2017-10-19T17:30:00.231Z,100009.61
2017-10-19T17:32:27.843Z,100005.95
2017-10-19T17:34:55.499Z,100005.42
2017-10-19T17:37:23.110Z,100001.38
2017-10-19T17:39:51.123Z,100002.20
2017-10-19T17:42:18.770Z,99999.84
2017-10-19T17:44:46.436Z,100002.33
2017-10-19T17:47:14.047Z,100003.08
2017-10-19T17:49:41.695Z,100006.52
2017-10-19T17:52:09.302Z,100001.09
2017-10-19T17:54:36.913Z,99996.10
2017-10-19T17:57:06.008Z,100006.43
2017-10-19T17:59:33.615Z,100005.70
2017-10-19T18:02:01.211Z,100007.56
2017-10-19T18:04:28.871Z,100006.75
2017-10-19T18:06:56.552Z,100009.45
2017-10-19T18:09:24.164Z,100007.59
2017-10-19T18:11:51.823Z,100009.67
2017-10-19T18:14:19.435Z,100013.02
2017-10-19T18:16:47.105Z,100011.75
2017-10-19T18:19:14.815Z,100010.91
2017-10-19T18:21:42.427Z,100013.17
2017-10-19T18:24:10.032Z,100016.06
2017-10-19T18:26:37.760Z,100013.13
2017-10-19T18:29:05.439Z,100015.33
2017-10-19T18:31:33.048Z,100014.38
2017-10-19T18:34:00.759Z,100013.74
2017-10-19T18:36:28.484Z,100016.67
2017-10-19T18:38:56.087Z,100016.03
2017-10-19T18:41:23.753Z,100020.41
2017-10-19T18:43:51.368Z,100019.05
2017-10-19T18:46:18.979Z,100020.20
2017-10-19T18:48:46.701Z,100019.46
2017-10-19T18:51:14.318Z,100021.43
2017-10-19T18:53:41.931Z,100023.52
2017-10-19T18:56:09.571Z,100027.91
2017-10-19T18:58:37.239Z,100027.90
2017-10-19T19:01:04.891Z,100031.08
2017-10-19T19:03:32.544Z,100030.87
2017-10-19T19:06:00.220Z,100031.98
2017-10-19T19:08:27.835Z,100033.66
2017-10-19T19:10:55.475Z,100030.40
2017-10-19T19:13:23.083Z,100029.41
2017-10-19T19:15:50.743Z,100036.50
2017-10-19T19:18:18.455Z,100034.63
2017-10-19T19:20:46.123Z,100035.12
2017-10-19T19:23:13.723Z,100038.33
2017-10-19T19:25:41.375Z,100041.67
2017-10-19T19:28:08.989Z,100038.77
2017-10-19T19:30:36.599Z,100038.35
2017-10-19T19:33:04.244Z,100039.09
2017-10-19T19:35:31.908Z,100046.64
2017-10-19T19:37:59.576Z,100047.03
2017-10-19T19:40:27.257Z,100048.39
2017-10-19T19:42:54.867Z,100050.91
2017-10-19T19:45:22.475Z,100049.04
2017-10-19T19:47:50.199Z,100048.49
2017-10-19T19:50:17.799Z,100052.20
2017-10-19T19:52:45.464Z,100050.78
2017-10-19T19:55:13.128Z,100052.61
2017-10-19T19:57:40.792Z,100053.16
2017-10-19T20:00:08.394Z,100053.66
2017-10-19T20:02:36.134Z,100052.31
2017-10-19T20:05:03.799Z,100061.13
2017-10-19T20:07:31.411Z,100047.77
2017-10-19T20:09:59.059Z,100054.94
2017-10-19T20:12:26.678Z,100051.91
2017-10-19T20:14:54.346Z,100048.70
2017-10-19T20:17:22.016Z,100058.10
2017-10-19T20:19:49.701Z,100049.11
2017-10-19T20:22:17.363Z,100044.98
2017-10-19T20:24:45.011Z,100049.45
2017-10-19T20:27:12.755Z,100044.94
2017-10-19T20:29:40.363Z,100045.72
2017-10-19T20:32:08.067Z,100051.64
2017-10-19T20:34:35.671Z,100044.97
2017-10-19T20:37:03.343Z,100047.73
2017-10-19T20:39:31.055Z,100056.55
2017-10-19T20:41:58.719Z,100046.47
2017-10-19T20:44:26.379Z,100053.70
2017-10-19T20:46:54.096Z,100045.74
2017-10-19T20:49:21.756Z,100046.11
2017-10-19T20:51:49.368Z,100057.09
2017-10-19T20:54:17.112Z,100049.97
2017-10-19T20:56:44.777Z,100053.27
2017-10-19T20:59:12.382Z,100047.78
2017-10-19T21:01:40.038Z,100043.20
2017-10-19T21:04:07.651Z,100044.23
2017-10-19T21:06:35.311Z,100038.55
2017-10-19T21:09:02.977Z,100040.41
2017-10-19T21:11:30.588Z,100044.97
2017-10-19T21:13:58.191Z,100041.42
2017-10-19T21:16:25.951Z,100040.03
2017-10-19T21:18:53.571Z,100042.41
2017-10-19T21:21:21.247Z,100035.31
2017-10-19T21:23:48.908Z,100039.36
2017-10-19T21:26:16.519Z,100037.71
2017-10-19T21:28:44.184Z,100031.09
2017-10-19T21:31:11.839Z,100039.12
2017-10-19T21:33:39.443Z,100035.49
2017-10-19T21:36:07.047Z,100040.32
2017-10-19T21:38:34.764Z,100028.96
2017-10-19T21:41:02.375Z,100031.06
2017-10-19T21:43:30.036Z,100032.27
2017-10-19T21:45:57.696Z,100034.66
2017-10-19T21:48:25.312Z,100038.31
2017-10-19T21:50:52.915Z,100035.42
2017-10-19T21:53:20.592Z,100034.17
2017-10-19T21:55:48.211Z,100032.98
2017-10-19T21:58:15.823Z,100038.28
2017-10-19T22:00:43.748Z,100039.20
2017-10-19T22:03:11.352Z,100041.58
2017-10-19T22:05:39.027Z,100044.73
2017-10-19T22:08:06.687Z,100044.75
2017-10-19T22:10:34.410Z,100043.00
2017-10-19T22:13:02.027Z,100046.61
2017-10-19T22:15:29.755Z,100045.41
2017-10-19T22:17:57.380Z,100045.36
2017-10-19T22:20:25.012Z,100048.98
2017-10-19T22:22:52.745Z,100049.03
2017-10-19T22:25:20.419Z,100055.39
2017-10-19T22:27:48.035Z,100050.16
2017-10-19T22:30:15.770Z,100049.82
2017-10-19T22:32:43.380Z,100047.91
2017-10-19T22:35:11.056Z,100045.09
2017-10-19T22:37:38.716Z,100047.13
2017-10-19T22:40:06.388Z,100050.01
2017-10-19T22:42:34.008Z,100049.28
2017-10-19T22:45:01.672Z,100052.70
2017-10-19T22:47:29.293Z,100056.59
2017-10-19T22:49:56.903Z,100063.42
2017-10-19T22:52:24.599Z,100069.38
2017-10-19T22:54:52.223Z,100066.12
2017-10-19T22:57:19.834Z,100068.06
2017-10-19T22:59:47.483Z,100070.57
2017-10-19T23:02:15.087Z,100071.11
2017-10-19T23:04:42.699Z,100071.66
2017-10-19T23:07:10.415Z,100066.66
2017-10-19T23:09:38.075Z,100070.77
2017-10-19T23:12:05.739Z,100070.58
2017-10-19T23:14:33.379Z,100072.84
2017-10-19T23:17:01.024Z,100064.41
2017-10-19T23:19:28.691Z,100068.91
2017-10-19T23:21:56.347Z,100063.45
2017-10-19T23:24:24.012Z,100059.08
2017-10-19T23:26:51.667Z,100064.39
2017-10-19T23:29:19.320Z,100063.38
2017-10-19T23:31:46.919Z,100065.53
2017-10-19T23:34:14.531Z,100063.77
2017-10-19T23:36:42.238Z,100064.27
2017-10-19T23:39:09.852Z,100065.41
2017-10-19T23:41:37.455Z,100066.03
2017-10-19T23:44:05.118Z,100066.30
2017-10-19T23:46:32.723Z,100068.33
2017-10-19T23:49:00.383Z,100073.93
2017-10-19T23:51:28.088Z,100061.23
2017-10-19T23:53:55.695Z,100069.81
2017-10-19T23:56:23.302Z,100066.62
2017-10-19T23:58:51.011Z,100067.55
